sensor_id;sensor_type;location;lat;lon;timestamp;temperature;humidity
1704;DHT22;849;48.780;9.216;2023-12-22T00:02:19;9.40;99.90
1704;DHT22;849;48.780;9.216;2023-12-22T00:05:04;9.30;99.90
1704;DHT22;849;48.780;9.216;2023-12-22T00:07:48;9.30;99.90
1704;DHT22;849;48.780;9.216;2023-12-22T00:10:32;9.30;99.90
1704;DHT22;849;48.780;9.216;2023-12-22T00:13:17;9.50;99.90
1704;DHT22;849;48.780;9.216;2023-12-22T00:16:01;9.40;99.90
1704;DHT22;849;48.780;9.216;2023-12-22T00:18:46;9.40;99.90
1704;DHT22;849;48.780;9.216;2023-12-22T00:21:30;9.50;99.90
1704;DHT22;849;48.780;9.216;2023-12-22T00:24:16;9.50;99.90
1704;DHT22;849;48.780;9.216;2023-12-22T00:27:00;9.60;99.90
1704;DHT22;849;48.780;9.216;2023-12-22T00:29:44;9.60;99.90
1704;DHT22;849;48.780;9.216;2023-12-22T00:32:28;9.60;99.90
1704;DHT22;849;48.780;9.216;2023-12-22T00:35:12;9.60;99.90
1704;DHT22;849;48.780;9.216;2023-12-22T00:37:56;9.60;99.90
1704;DHT22;849;48.780;9.216;2023-12-22T00:40:40;9.70;99.90
1704;DHT22;849;48.780;9.216;2023-12-22T00:43:24;9.70;99.90
1704;DHT22;849;48.780;9.216;2023-12-22T00:46:09;9.30;99.90
1704;DHT22;849;48.780;9.216;2023-12-22T00:48:53;8.90;99.90
1704;DHT22;849;48.780;9.216;2023-12-22T00:51:37;8.80;99.90
1704;DHT22;849;48.780;9.216;2023-12-22T00:54:21;8.80;99.90
1704;DHT22;849;48.780;9.216;2023-12-22T00:57:06;8.80;99.90
1704;DHT22;849;48.780;9.216;2023-12-22T00:59:50;8.80;99.90
1704;DHT22;849;48.780;9.216;2023-12-22T01:02:34;8.80;99.90
1704;DHT22;849;48.780;9.216;2023-12-22T01:05:18;8.90;99.90
1704;DHT22;849;48.780;9.216;2023-12-22T01:08:02;8.90;99.90
1704;DHT22;849;48.780;9.216;2023-12-22T01:10:46;8.90;99.90
1704;DHT22;849;48.780;9.216;2023-12-22T01:13:31;9.00;99.90
1704;DHT22;849;48.780;9.216;2023-12-22T01:16:15;9.10;99.90
1704;DHT22;849;48.780;9.216;2023-12-22T01:18:59;9.30;99.90
1704;DHT22;849;48.780;9.216;2023-12-22T01:21:43;9.30;99.90
1704;DHT22;849;48.780;9.216;2023-12-22T01:24:27;9.30;99.90
1704;DHT22;849;48.780;9.216;2023-12-22T01:27:11;9.30;99.90
1704;DHT22;849;48.780;9.216;2023-12-22T01:29:56;9.20;99.90
1704;DHT22;849;48.780;9.216;2023-12-22T01:32:40;9.20;99.90
1704;DHT22;849;48.780;9.216;2023-12-22T01:35:24;9.20;99.90
1704;DHT22;849;48.780;9.216;2023-12-22T01:38:08;9.20;99.90
1704;DHT22;849;48.780;9.216;2023-12-22T01:40:53;9.20;99.90
1704;DHT22;849;48.780;9.216;2023-12-22T01:43:37;9.30;99.90
1704;DHT22;849;48.780;9.216;2023-12-22T01:46:21;9.30;99.90
1704;DHT22;849;48.780;9.216;2023-12-22T01:49:05;9.30;99.90
1704;DHT22;849;48.780;9.216;2023-12-22T01:51:50;9.30;99.90
1704;DHT22;849;48.780;9.216;2023-12-22T01:54:35;9.30;99.90
1704;DHT22;849;48.780;9.216;2023-12-22T01:57:19;9.30;99.90
1704;DHT22;849;48.780;9.216;2023-12-22T02:00:03;9.30;99.90
1704;DHT22;849;48.780;9.216;2023-12-22T02:02:47;9.30;99.90
1704;DHT22;849;48.780;9.216;2023-12-22T02:05:32;9.30;99.90
1704;DHT22;849;48.780;9.216;2023-12-22T02:08:17;9.30;99.90
1704;DHT22;849;48.780;9.216;2023-12-22T02:11:02;9.40;99.90
1704;DHT22;849;48.780;9.216;2023-12-22T02:13:46;9.30;99.90
1704;DHT22;849;48.780;9.216;2023-12-22T02:16:32;9.30;99.90
1704;DHT22;849;48.780;9.216;2023-12-22T02:22:19;9.40;99.90
1704;DHT22;849;48.780;9.216;2023-12-22T02:25:05;9.40;99.90
1704;DHT22;849;48.780;9.216;2023-12-22T02:30:47;9.20;99.90
1704;DHT22;849;48.780;9.216;2023-12-22T02:33:36;9.20;99.90
1704;DHT22;849;48.780;9.216;2023-12-22T02:36:23;9.20;99.90
1704;DHT22;849;48.780;9.216;2023-12-22T02:39:08;9.30;99.90
1704;DHT22;849;48.780;9.216;2023-12-22T02:41:52;9.30;99.90
1704;DHT22;849;48.780;9.216;2023-12-22T02:44:36;9.30;99.90
1704;DHT22;849;48.780;9.216;2023-12-22T02:47:21;9.30;99.90
1704;DHT22;849;48.780;9.216;2023-12-22T02:50:06;9.40;99.90
1704;DHT22;849;48.780;9.216;2023-12-22T02:52:50;9.40;99.90
1704;DHT22;849;48.780;9.216;2023-12-22T02:55:34;9.30;99.90
1704;DHT22;849;48.780;9.216;2023-12-22T02:58:18;9.30;99.90
1704;DHT22;849;48.780;9.216;2023-12-22T03:01:03;9.40;99.90
1704;DHT22;849;48.780;9.216;2023-12-22T03:03:47;9.50;99.90
1704;DHT22;849;48.780;9.216;2023-12-22T03:06:31;9.40;99.90
1704;DHT22;849;48.780;9.216;2023-12-22T03:09:15;9.40;99.90
1704;DHT22;849;48.780;9.216;2023-12-22T03:12:00;9.50;99.90
1704;DHT22;849;48.780;9.216;2023-12-22T03:14:45;9.50;99.90
1704;DHT22;849;48.780;9.216;2023-12-22T03:17:30;9.50;99.90
1704;DHT22;849;48.780;9.216;2023-12-22T03:20:14;9.50;99.90
1704;DHT22;849;48.780;9.216;2023-12-22T03:22:59;9.50;99.90
1704;DHT22;849;48.780;9.216;2023-12-22T03:25:43;9.50;99.90
1704;DHT22;849;48.780;9.216;2023-12-22T03:28:27;9.60;99.90
1704;DHT22;849;48.780;9.216;2023-12-22T03:31:11;9.60;99.90
1704;DHT22;849;48.780;9.216;2023-12-22T03:33:56;9.60;99.90
1704;DHT22;849;48.780;9.216;2023-12-22T03:36:40;9.60;99.90
1704;DHT22;849;48.780;9.216;2023-12-22T03:39:24;9.50;99.90
1704;DHT22;849;48.780;9.216;2023-12-22T03:42:08;9.50;99.90
1704;DHT22;849;48.780;9.216;2023-12-22T03:44:52;9.60;99.90
1704;DHT22;849;48.780;9.216;2023-12-22T03:47:37;9.60;99.90
1704;DHT22;849;48.780;9.216;2023-12-22T03:50:21;9.70;99.90
1704;DHT22;849;48.780;9.216;2023-12-22T03:53:05;9.70;99.90
1704;DHT22;849;48.780;9.216;2023-12-22T03:55:49;9.60;99.90
1704;DHT22;849;48.780;9.216;2023-12-22T03:58:34;9.70;99.90
1704;DHT22;849;48.780;9.216;2023-12-22T04:01:18;9.70;99.90
1704;DHT22;849;48.780;9.216;2023-12-22T04:04:02;9.70;99.90
1704;DHT22;849;48.780;9.216;2023-12-22T04:06:46;9.50;99.90
1704;DHT22;849;48.780;9.216;2023-12-22T04:09:30;9.30;99.90
1704;DHT22;849;48.780;9.216;2023-12-22T04:12:15;9.10;99.90
1704;DHT22;849;48.780;9.216;2023-12-22T04:14:59;9.10;99.90
1704;DHT22;849;48.780;9.216;2023-12-22T04:17:43;9.20;99.90
1704;DHT22;849;48.780;9.216;2023-12-22T04:20:27;9.00;99.90
1704;DHT22;849;48.780;9.216;2023-12-22T04:23:11;8.90;99.90
1704;DHT22;849;48.780;9.216;2023-12-22T04:25:56;8.90;99.90
1704;DHT22;849;48.780;9.216;2023-12-22T04:28:40;8.80;99.90
1704;DHT22;849;48.780;9.216;2023-12-22T04:31:24;8.70;99.90
1704;DHT22;849;48.780;9.216;2023-12-22T04:34:08;8.70;99.90
1704;DHT22;849;48.780;9.216;2023-12-22T04:36:52;8.80;99.90
1704;DHT22;849;48.780;9.216;2023-12-22T04:39:36;8.80;99.90
1704;DHT22;849;48.780;9.216;2023-12-22T04:42:21;8.90;99.90
1704;DHT22;849;48.780;9.216;2023-12-22T04:45:05;8.90;99.90
1704;DHT22;849;48.780;9.216;2023-12-22T04:47:49;9.00;99.90
1704;DHT22;849;48.780;9.216;2023-12-22T04:50:33;9.00;99.90
1704;DHT22;849;48.780;9.216;2023-12-22T04:53:17;9.10;99.90
1704;DHT22;849;48.780;9.216;2023-12-22T04:56:01;9.10;99.90
1704;DHT22;849;48.780;9.216;2023-12-22T04:58:46;9.10;99.90
1704;DHT22;849;48.780;9.216;2023-12-22T05:01:30;9.20;99.90
1704;DHT22;849;48.780;9.216;2023-12-22T05:04:14;9.20;99.90
1704;DHT22;849;48.780;9.216;2023-12-22T05:06:58;9.20;99.90
1704;DHT22;849;48.780;9.216;2023-12-22T05:09:42;9.20;99.90
1704;DHT22;849;48.780;9.216;2023-12-22T05:12:26;9.30;99.90
1704;DHT22;849;48.780;9.216;2023-12-22T05:15:11;9.30;99.90
1704;DHT22;849;48.780;9.216;2023-12-22T05:17:55;9.30;99.90
1704;DHT22;849;48.780;9.216;2023-12-22T05:20:39;9.30;99.90
1704;DHT22;849;48.780;9.216;2023-12-22T05:23:23;9.30;99.90
1704;DHT22;849;48.780;9.216;2023-12-22T05:26:07;9.30;99.90
1704;DHT22;849;48.780;9.216;2023-12-22T05:28:52;9.80;99.90
1704;DHT22;849;48.780;9.216;2023-12-22T05:31:36;9.40;99.90
1704;DHT22;849;48.780;9.216;2023-12-22T05:34:20;9.40;99.90
1704;DHT22;849;48.780;9.216;2023-12-22T05:37:04;9.40;99.90
1704;DHT22;849;48.780;9.216;2023-12-22T05:39:49;9.40;99.90
1704;DHT22;849;48.780;9.216;2023-12-22T05:42:33;9.40;99.90
1704;DHT22;849;48.780;9.216;2023-12-22T05:45:17;9.40;99.90
1704;DHT22;849;48.780;9.216;2023-12-22T05:48:02;9.40;99.90
1704;DHT22;849;48.780;9.216;2023-12-22T05:50:46;9.40;99.90
1704;DHT22;849;48.780;9.216;2023-12-22T05:53:30;9.30;99.90
1704;DHT22;849;48.780;9.216;2023-12-22T05:56:21;9.30;99.90
1704;DHT22;849;48.780;9.216;2023-12-22T05:59:06;9.30;99.90
1704;DHT22;849;48.780;9.216;2023-12-22T06:01:53;9.30;99.90
1704;DHT22;849;48.780;9.216;2023-12-22T06:04:37;9.40;99.90
1704;DHT22;849;48.780;9.216;2023-12-22T06:07:21;9.40;99.90
1704;DHT22;849;48.780;9.216;2023-12-22T06:10:05;9.50;99.90
1704;DHT22;849;48.780;9.216;2023-12-22T06:12:50;9.50;99.90
1704;DHT22;849;48.780;9.216;2023-12-22T06:15:35;9.50;99.90
1704;DHT22;849;48.780;9.216;2023-12-22T06:18:19;9.60;99.90
1704;DHT22;849;48.780;9.216;2023-12-22T06:21:03;9.60;99.90
1704;DHT22;849;48.780;9.216;2023-12-22T06:23:47;9.70;99.90
1704;DHT22;849;48.780;9.216;2023-12-22T06:26:31;9.70;99.90
1704;DHT22;849;48.780;9.216;2023-12-22T06:29:15;9.70;99.90
1704;DHT22;849;48.780;9.216;2023-12-22T06:32:00;9.70;99.90
1704;DHT22;849;48.780;9.216;2023-12-22T06:34:44;9.90;99.90
1704;DHT22;849;48.780;9.216;2023-12-22T06:37:28;9.50;99.90
1704;DHT22;849;48.780;9.216;2023-12-22T06:40:12;9.60;99.90
1704;DHT22;849;48.780;9.216;2023-12-22T06:42:57;9.60;99.90
1704;DHT22;849;48.780;9.216;2023-12-22T06:45:41;9.70;99.90
1704;DHT22;849;48.780;9.216;2023-12-22T06:48:25;9.60;99.90
1704;DHT22;849;48.780;9.216;2023-12-22T06:51:36;9.60;99.90
1704;DHT22;849;48.780;9.216;2023-12-22T06:54:21;9.60;99.90
1704;DHT22;849;48.780;9.216;2023-12-22T06:57:05;9.70;99.90
1704;DHT22;849;48.780;9.216;2023-12-22T06:59:49;9.80;99.90
1704;DHT22;849;48.780;9.216;2023-12-22T07:02:34;9.80;99.90
1704;DHT22;849;48.780;9.216;2023-12-22T07:08:05;9.70;99.90
1704;DHT22;849;48.780;9.216;2023-12-22T07:10:49;9.70;99.90
1704;DHT22;849;48.780;9.216;2023-12-22T07:13:33;9.70;99.90
1704;DHT22;849;48.780;9.216;2023-12-22T07:16:18;9.70;99.90
1704;DHT22;849;48.780;9.216;2023-12-22T07:19:02;9.80;99.90
1704;DHT22;849;48.780;9.216;2023-12-22T07:21:46;9.70;99.90
1704;DHT22;849;48.780;9.216;2023-12-22T07:24:30;9.60;99.90
1704;DHT22;849;48.780;9.216;2023-12-22T07:27:15;9.70;99.90
1704;DHT22;849;48.780;9.216;2023-12-22T07:30:00;9.70;99.90
1704;DHT22;849;48.780;9.216;2023-12-22T07:32:45;9.70;99.90
1704;DHT22;849;48.780;9.216;2023-12-22T07:35:31;9.70;99.90
1704;DHT22;849;48.780;9.216;2023-12-22T07:38:15;9.80;99.90
1704;DHT22;849;48.780;9.216;2023-12-22T07:40:59;9.80;99.90
1704;DHT22;849;48.780;9.216;2023-12-22T07:43:43;9.80;99.90
1704;DHT22;849;48.780;9.216;2023-12-22T07:46:27;9.80;99.90
1704;DHT22;849;48.780;9.216;2023-12-22T07:49:12;9.80;99.90
1704;DHT22;849;48.780;9.216;2023-12-22T07:51:57;9.90;99.90
1704;DHT22;849;48.780;9.216;2023-12-22T07:54:41;9.80;99.90
1704;DHT22;849;48.780;9.216;2023-12-22T07:57:25;9.80;99.90
1704;DHT22;849;48.780;9.216;2023-12-22T08:00:10;9.80;99.90
1704;DHT22;849;48.780;9.216;2023-12-22T08:02:54;9.80;99.90
1704;DHT22;849;48.780;9.216;2023-12-22T08:05:38;9.80;99.90
1704;DHT22;849;48.780;9.216;2023-12-22T08:08:22;9.80;99.90
1704;DHT22;849;48.780;9.216;2023-12-22T08:11:06;9.70;99.90
1704;DHT22;849;48.780;9.216;2023-12-22T08:13:51;9.70;99.90
1704;DHT22;849;48.780;9.216;2023-12-22T08:16:35;9.80;99.90
1704;DHT22;849;48.780;9.216;2023-12-22T08:19:19;9.70;99.90
1704;DHT22;849;48.780;9.216;2023-12-22T08:22:04;9.70;99.90
1704;DHT22;849;48.780;9.216;2023-12-22T08:24:49;9.50;99.90
1704;DHT22;849;48.780;9.216;2023-12-22T08:27:33;9.40;99.90
1704;DHT22;849;48.780;9.216;2023-12-22T08:30:18;9.50;99.90
1704;DHT22;849;48.780;9.216;2023-12-22T08:33:02;9.40;99.90
1704;DHT22;849;48.780;9.216;2023-12-22T08:35:47;9.40;99.90
1704;DHT22;849;48.780;9.216;2023-12-22T08:38:31;9.40;99.90
1704;DHT22;849;48.780;9.216;2023-12-22T08:41:15;9.40;99.90
1704;DHT22;849;48.780;9.216;2023-12-22T08:43:59;9.40;99.90
1704;DHT22;849;48.780;9.216;2023-12-22T08:46:43;9.30;99.90
1704;DHT22;849;48.780;9.216;2023-12-22T08:49:27;9.30;99.90
1704;DHT22;849;48.780;9.216;2023-12-22T08:52:11;9.30;99.90
1704;DHT22;849;48.780;9.216;2023-12-22T08:54:57;9.20;99.90
1704;DHT22;849;48.780;9.216;2023-12-22T08:57:41;9.20;99.90
1704;DHT22;849;48.780;9.216;2023-12-22T09:00:25;9.20;99.90
1704;DHT22;849;48.780;9.216;2023-12-22T09:03:08;9.30;99.90
1704;DHT22;849;48.780;9.216;2023-12-22T09:05:53;9.20;99.90
1704;DHT22;849;48.780;9.216;2023-12-22T09:08:37;9.20;99.90
1704;DHT22;849;48.780;9.216;2023-12-22T09:11:21;9.30;99.90
1704;DHT22;849;48.780;9.216;2023-12-22T09:14:06;9.30;99.90
1704;DHT22;849;48.780;9.216;2023-12-22T09:16:53;9.40;99.90
1704;DHT22;849;48.780;9.216;2023-12-22T09:19:40;9.40;99.90
1704;DHT22;849;48.780;9.216;2023-12-22T09:22:24;9.40;99.90
1704;DHT22;849;48.780;9.216;2023-12-22T09:25:08;9.50;99.90
1704;DHT22;849;48.780;9.216;2023-12-22T09:27:55;9.50;99.90
1704;DHT22;849;48.780;9.216;2023-12-22T09:30:39;9.60;99.90
1704;DHT22;849;48.780;9.216;2023-12-22T09:33:23;9.60;99.90
1704;DHT22;849;48.780;9.216;2023-12-22T09:36:08;9.60;99.90
1704;DHT22;849;48.780;9.216;2023-12-22T09:38:52;9.60;99.90
1704;DHT22;849;48.780;9.216;2023-12-22T09:41:36;9.70;99.90
1704;DHT22;849;48.780;9.216;2023-12-22T09:44:21;9.80;99.90
1704;DHT22;849;48.780;9.216;2023-12-22T09:47:05;9.90;99.90
1704;DHT22;849;48.780;9.216;2023-12-22T09:49:51;9.90;99.90
1704;DHT22;849;48.780;9.216;2023-12-22T09:52:36;9.70;99.90
1704;DHT22;849;48.780;9.216;2023-12-22T09:55:22;9.70;99.90
1704;DHT22;849;48.780;9.216;2023-12-22T09:58:06;9.80;99.90
1704;DHT22;849;48.780;9.216;2023-12-22T10:00:53;9.80;99.90
1704;DHT22;849;48.780;9.216;2023-12-22T10:03:39;9.80;99.90
1704;DHT22;849;48.780;9.216;2023-12-22T10:06:26;9.80;99.90
1704;DHT22;849;48.780;9.216;2023-12-22T10:09:11;9.80;99.90
1704;DHT22;849;48.780;9.216;2023-12-22T10:12:00;10.00;99.90
1704;DHT22;849;48.780;9.216;2023-12-22T10:14:46;10.00;99.90
1704;DHT22;849;48.780;9.216;2023-12-22T10:17:30;10.00;99.90
1704;DHT22;849;48.780;9.216;2023-12-22T10:20:15;10.00;99.90
1704;DHT22;849;48.780;9.216;2023-12-22T10:22:59;10.00;99.90
1704;DHT22;849;48.780;9.216;2023-12-22T10:25:43;10.00;99.90
1704;DHT22;849;48.780;9.216;2023-12-22T10:28:28;10.10;99.90
1704;DHT22;849;48.780;9.216;2023-12-22T10:31:12;10.10;99.90
1704;DHT22;849;48.780;9.216;2023-12-22T10:33:56;10.10;99.90
1704;DHT22;849;48.780;9.216;2023-12-22T10:36:40;10.20;99.90
1704;DHT22;849;48.780;9.216;2023-12-22T10:39:27;10.20;99.90
1704;DHT22;849;48.780;9.216;2023-12-22T10:42:12;10.10;99.90
1704;DHT22;849;48.780;9.216;2023-12-22T10:44:56;10.10;99.90
1704;DHT22;849;48.780;9.216;2023-12-22T10:47:41;10.30;99.90
1704;DHT22;849;48.780;9.216;2023-12-22T10:50:25;10.10;99.90
1704;DHT22;849;48.780;9.216;2023-12-22T10:53:12;10.10;99.90
1704;DHT22;849;48.780;9.216;2023-12-22T10:55:56;10.10;99.90
1704;DHT22;849;48.780;9.216;2023-12-22T10:58:42;10.40;99.90
1704;DHT22;849;48.780;9.216;2023-12-22T11:01:30;10.20;99.90
1704;DHT22;849;48.780;9.216;2023-12-22T11:04:18;10.20;99.90
1704;DHT22;849;48.780;9.216;2023-12-22T11:07:04;10.30;99.90
1704;DHT22;849;48.780;9.216;2023-12-22T11:09:51;10.30;99.90
1704;DHT22;849;48.780;9.216;2023-12-22T11:12:38;10.20;99.90
1704;DHT22;849;48.780;9.216;2023-12-22T11:15:22;10.10;99.90
1704;DHT22;849;48.780;9.216;2023-12-22T11:18:08;10.20;99.90
1704;DHT22;849;48.780;9.216;2023-12-22T11:20:54;10.10;99.90
1704;DHT22;849;48.780;9.216;2023-12-22T11:23:38;10.10;99.90
1704;DHT22;849;48.780;9.216;2023-12-22T11:26:24;10.10;99.90
1704;DHT22;849;48.780;9.216;2023-12-22T11:29:09;10.10;99.90
1704;DHT22;849;48.780;9.216;2023-12-22T11:31:55;10.10;99.90
1704;DHT22;849;48.780;9.216;2023-12-22T11:34:43;10.00;99.90
1704;DHT22;849;48.780;9.216;2023-12-22T11:37:30;9.90;99.90
1704;DHT22;849;48.780;9.216;2023-12-22T11:40:15;9.80;99.90
1704;DHT22;849;48.780;9.216;2023-12-22T11:42:59;9.80;99.90
1704;DHT22;849;48.780;9.216;2023-12-22T11:45:44;9.80;99.90
1704;DHT22;849;48.780;9.216;2023-12-22T11:48:29;9.90;99.90
1704;DHT22;849;48.780;9.216;2023-12-22T11:51:14;9.90;99.90
1704;DHT22;849;48.780;9.216;2023-12-22T11:53:58;9.90;99.90
1704;DHT22;849;48.780;9.216;2023-12-22T11:56:42;9.90;99.90
1704;DHT22;849;48.780;9.216;2023-12-22T11:59:26;9.90;99.90
1704;DHT22;849;48.780;9.216;2023-12-22T12:02:11;9.90;99.90
1704;DHT22;849;48.780;9.216;2023-12-22T12:04:57;9.80;99.90
1704;DHT22;849;48.780;9.216;2023-12-22T12:07:47;9.80;99.90
1704;DHT22;849;48.780;9.216;2023-12-22T12:13:22;10.00;99.90
1704;DHT22;849;48.780;9.216;2023-12-22T12:16:08;9.60;99.90
1704;DHT22;849;48.780;9.216;2023-12-22T12:18:52;9.70;99.90
1704;DHT22;849;48.780;9.216;2023-12-22T12:21:37;9.70;99.90
1704;DHT22;849;48.780;9.216;2023-12-22T12:24:24;9.60;99.90
1704;DHT22;849;48.780;9.216;2023-12-22T12:27:09;9.90;99.90
1704;DHT22;849;48.780;9.216;2023-12-22T12:29:54;9.80;99.90
1704;DHT22;849;48.780;9.216;2023-12-22T12:32:40;10.00;99.90
1704;DHT22;849;48.780;9.216;2023-12-22T12:35:25;9.80;99.90
1704;DHT22;849;48.780;9.216;2023-12-22T12:38:11;9.80;99.90
1704;DHT22;849;48.780;9.216;2023-12-22T12:40:56;9.90;99.90
1704;DHT22;849;48.780;9.216;2023-12-22T12:43:42;9.90;99.90
1704;DHT22;849;48.780;9.216;2023-12-22T12:46:34;9.90;99.90
1704;DHT22;849;48.780;9.216;2023-12-22T12:49:18;9.80;99.90
1704;DHT22;849;48.780;9.216;2023-12-22T12:52:03;9.80;99.90
1704;DHT22;849;48.780;9.216;2023-12-22T12:54:47;9.80;99.90
1704;DHT22;849;48.780;9.216;2023-12-22T12:57:32;9.80;99.90
1704;DHT22;849;48.780;9.216;2023-12-22T13:00:33;9.80;99.90
1704;DHT22;849;48.780;9.216;2023-12-22T13:03:20;9.80;99.90
1704;DHT22;849;48.780;9.216;2023-12-22T13:06:07;9.90;99.90
1704;DHT22;849;48.780;9.216;2023-12-22T13:08:52;9.80;99.90
1704;DHT22;849;48.780;9.216;2023-12-22T13:11:37;9.80;99.90
1704;DHT22;849;48.780;9.216;2023-12-22T13:14:22;10.00;99.90
1704;DHT22;849;48.780;9.216;2023-12-22T13:17:08;9.70;99.90
1704;DHT22;849;48.780;9.216;2023-12-22T13:19:54;9.80;99.90
1704;DHT22;849;48.780;9.216;2023-12-22T13:22:38;9.90;99.90
1704;DHT22;849;48.780;9.216;2023-12-22T13:25:23;10.00;99.90
1704;DHT22;849;48.780;9.216;2023-12-22T13:28:07;9.90;99.90
1704;DHT22;849;48.780;9.216;2023-12-22T13:30:51;10.00;99.90
1704;DHT22;849;48.780;9.216;2023-12-22T13:33:35;10.00;99.90
1704;DHT22;849;48.780;9.216;2023-12-22T13:36:19;10.00;99.90
1704;DHT22;849;48.780;9.216;2023-12-22T13:39:05;10.10;99.90
1704;DHT22;849;48.780;9.216;2023-12-22T13:41:50;10.10;99.90
1704;DHT22;849;48.780;9.216;2023-12-22T13:44:42;10.30;99.90
1704;DHT22;849;48.780;9.216;2023-12-22T13:47:26;10.30;99.90
1704;DHT22;849;48.780;9.216;2023-12-22T13:50:15;10.40;99.90
1704;DHT22;849;48.780;9.216;2023-12-22T13:53:10;10.40;99.90
1704;DHT22;849;48.780;9.216;2023-12-22T13:56:00;10.50;99.90
1704;DHT22;849;48.780;9.216;2023-12-22T13:58:45;10.60;99.90
1704;DHT22;849;48.780;9.216;2023-12-22T14:01:30;10.60;99.90
1704;DHT22;849;48.780;9.216;2023-12-22T14:04:14;10.60;99.90
1704;DHT22;849;48.780;9.216;2023-12-22T14:06:58;10.60;99.90
1704;DHT22;849;48.780;9.216;2023-12-22T14:09:43;10.70;99.90
1704;DHT22;849;48.780;9.216;2023-12-22T14:12:27;10.80;99.90
1704;DHT22;849;48.780;9.216;2023-12-22T14:15:11;10.90;99.90
1704;DHT22;849;48.780;9.216;2023-12-22T14:17:56;10.90;99.90
1704;DHT22;849;48.780;9.216;2023-12-22T14:20:40;10.90;99.90
1704;DHT22;849;48.780;9.216;2023-12-22T14:23:25;11.00;99.90
1704;DHT22;849;48.780;9.216;2023-12-22T14:26:09;10.90;99.90
1704;DHT22;849;48.780;9.216;2023-12-22T14:28:53;10.90;99.90
1704;DHT22;849;48.780;9.216;2023-12-22T14:31:37;10.90;99.90
1704;DHT22;849;48.780;9.216;2023-12-22T14:34:21;10.90;99.90
1704;DHT22;849;48.780;9.216;2023-12-22T14:37:06;11.00;99.90
1704;DHT22;849;48.780;9.216;2023-12-22T14:39:49;11.40;99.90
1704;DHT22;849;48.780;9.216;2023-12-22T14:42:34;11.00;99.90
1704;DHT22;849;48.780;9.216;2023-12-22T14:45:17;11.10;99.90
1704;DHT22;849;48.780;9.216;2023-12-22T14:48:02;11.20;99.90
1704;DHT22;849;48.780;9.216;2023-12-22T14:50:46;11.20;99.90
1704;DHT22;849;48.780;9.216;2023-12-22T14:53:30;11.20;99.90
1704;DHT22;849;48.780;9.216;2023-12-22T14:56:15;11.20;99.90
1704;DHT22;849;48.780;9.216;2023-12-22T14:58:59;11.20;99.90
1704;DHT22;849;48.780;9.216;2023-12-22T15:01:46;11.20;99.90
1704;DHT22;849;48.780;9.216;2023-12-22T15:04:33;11.30;99.90
1704;DHT22;849;48.780;9.216;2023-12-22T15:07:18;11.20;99.90
1704;DHT22;849;48.780;9.216;2023-12-22T15:10:03;11.20;99.90
1704;DHT22;849;48.780;9.216;2023-12-22T15:12:49;11.20;99.90
1704;DHT22;849;48.780;9.216;2023-12-22T15:15:33;11.20;99.90
1704;DHT22;849;48.780;9.216;2023-12-22T15:18:17;11.10;99.90
1704;DHT22;849;48.780;9.216;2023-12-22T15:21:02;11.20;99.90
1704;DHT22;849;48.780;9.216;2023-12-22T15:23:47;11.30;99.90
1704;DHT22;849;48.780;9.216;2023-12-22T15:26:31;11.30;99.90
1704;DHT22;849;48.780;9.216;2023-12-22T15:29:17;11.30;99.90
1704;DHT22;849;48.780;9.216;2023-12-22T15:32:01;11.30;99.90
1704;DHT22;849;48.780;9.216;2023-12-22T15:34:46;11.30;99.90
1704;DHT22;849;48.780;9.216;2023-12-22T15:37:30;11.20;99.90
1704;DHT22;849;48.780;9.216;2023-12-22T15:40:14;11.10;99.90
1704;DHT22;849;48.780;9.216;2023-12-22T15:42:58;11.10;99.90
1704;DHT22;849;48.780;9.216;2023-12-22T15:45:42;11.60;99.90
1704;DHT22;849;48.780;9.216;2023-12-22T15:48:27;11.10;99.90
1704;DHT22;849;48.780;9.216;2023-12-22T15:51:12;11.10;99.90
1704;DHT22;849;48.780;9.216;2023-12-22T15:53:56;11.10;99.90
1704;DHT22;849;48.780;9.216;2023-12-22T15:56:41;11.20;99.90
1704;DHT22;849;48.780;9.216;2023-12-22T15:59:25;11.20;99.90
1704;DHT22;849;48.780;9.216;2023-12-22T16:02:09;11.30;99.90
1704;DHT22;849;48.780;9.216;2023-12-22T16:04:53;11.30;99.90
1704;DHT22;849;48.780;9.216;2023-12-22T16:07:38;11.30;99.90
1704;DHT22;849;48.780;9.216;2023-12-22T16:10:25;11.30;99.90
1704;DHT22;849;48.780;9.216;2023-12-22T16:13:11;11.40;99.90
1704;DHT22;849;48.780;9.216;2023-12-22T16:15:57;11.30;99.90
1704;DHT22;849;48.780;9.216;2023-12-22T16:18:41;11.40;99.90
1704;DHT22;849;48.780;9.216;2023-12-22T16:21:25;11.30;99.90
1704;DHT22;849;48.780;9.216;2023-12-22T16:24:10;11.40;99.90
1704;DHT22;849;48.780;9.216;2023-12-22T16:26:54;11.30;99.90
1704;DHT22;849;48.780;9.216;2023-12-22T16:29:39;11.30;99.90
1704;DHT22;849;48.780;9.216;2023-12-22T16:32:24;11.40;99.90
1704;DHT22;849;48.780;9.216;2023-12-22T16:35:09;11.40;99.90
1704;DHT22;849;48.780;9.216;2023-12-22T16:37:53;11.30;99.90
1704;DHT22;849;48.780;9.216;2023-12-22T16:40:38;11.40;99.90
1704;DHT22;849;48.780;9.216;2023-12-22T16:43:22;11.50;99.90
1704;DHT22;849;48.780;9.216;2023-12-22T16:46:07;11.60;99.90
1704;DHT22;849;48.780;9.216;2023-12-22T16:48:52;11.60;99.90
1704;DHT22;849;48.780;9.216;2023-12-22T16:51:35;11.50;99.90
1704;DHT22;849;48.780;9.216;2023-12-22T16:54:19;12.00;99.90
1704;DHT22;849;48.780;9.216;2023-12-22T16:57:04;11.60;99.90
1704;DHT22;849;48.780;9.216;2023-12-22T16:59:48;11.60;99.90
1704;DHT22;849;48.780;9.216;2023-12-22T17:02:32;11.60;99.90
1704;DHT22;849;48.780;9.216;2023-12-22T17:05:18;11.60;99.90
1704;DHT22;849;48.780;9.216;2023-12-22T17:08:02;11.50;99.90
1704;DHT22;849;48.780;9.216;2023-12-22T17:10:47;11.50;99.90
1704;DHT22;849;48.780;9.216;2023-12-22T17:13:33;11.50;99.90
1704;DHT22;849;48.780;9.216;2023-12-22T17:16:17;11.40;99.90
1704;DHT22;849;48.780;9.216;2023-12-22T17:19:01;11.30;99.90
1704;DHT22;849;48.780;9.216;2023-12-22T17:21:45;11.30;99.90
1704;DHT22;849;48.780;9.216;2023-12-22T17:24:29;11.30;99.90
1704;DHT22;849;48.780;9.216;2023-12-22T17:27:14;11.50;99.90
1704;DHT22;849;48.780;9.216;2023-12-22T17:29:58;11.40;99.90
1704;DHT22;849;48.780;9.216;2023-12-22T17:32:43;11.40;99.90
1704;DHT22;849;48.780;9.216;2023-12-22T17:35:27;11.30;99.90
1704;DHT22;849;48.780;9.216;2023-12-22T17:38:11;11.30;99.90
1704;DHT22;849;48.780;9.216;2023-12-22T17:40:56;11.30;99.90
1704;DHT22;849;48.780;9.216;2023-12-22T17:43:40;11.30;99.90
1704;DHT22;849;48.780;9.216;2023-12-22T17:46:24;11.30;99.90
1704;DHT22;849;48.780;9.216;2023-12-22T17:49:08;11.40;99.90
1704;DHT22;849;48.780;9.216;2023-12-22T17:51:52;11.40;99.90
1704;DHT22;849;48.780;9.216;2023-12-22T17:54:37;11.40;99.90
1704;DHT22;849;48.780;9.216;2023-12-22T17:57:21;11.40;99.90
1704;DHT22;849;48.780;9.216;2023-12-22T18:00:05;11.40;99.90
1704;DHT22;849;48.780;9.216;2023-12-22T18:02:49;11.40;99.90
1704;DHT22;849;48.780;9.216;2023-12-22T18:05:34;11.40;99.90
1704;DHT22;849;48.780;9.216;2023-12-22T18:08:18;11.40;99.90
1704;DHT22;849;48.780;9.216;2023-12-22T18:11:03;11.50;99.90
1704;DHT22;849;48.780;9.216;2023-12-22T18:13:47;11.50;99.90
1704;DHT22;849;48.780;9.216;2023-12-22T18:16:42;11.40;99.90
1704;DHT22;849;48.780;9.216;2023-12-22T18:19:26;11.30;99.90
1704;DHT22;849;48.780;9.216;2023-12-22T18:22:10;11.20;99.90
1704;DHT22;849;48.780;9.216;2023-12-22T18:24:55;11.20;99.90
1704;DHT22;849;48.780;9.216;2023-12-22T18:27:39;11.30;99.90
1704;DHT22;849;48.780;9.216;2023-12-22T18:30:23;11.30;99.90
1704;DHT22;849;48.780;9.216;2023-12-22T18:33:07;11.60;99.90
1704;DHT22;849;48.780;9.216;2023-12-22T18:35:52;11.60;99.90
1704;DHT22;849;48.780;9.216;2023-12-22T18:38:36;11.40;99.90